This is the latest recevied weather packets stored in our database for station/object EA5EN. If no packets are shown the sender has not sent any weather packets the latest 10 day(s).
| Time | Temp. | Humidity | Pressure | Rain* | Wind** | Luminosity | Snow |
|---|---|---|---|---|---|---|---|
| 1777867288 | 17.22° C | 95% | 1012.3 hPa | 0 mm | - | - | - |
| 1777866661 | 17.22° C | 95% | 1012.3 hPa | 0 mm | - | - | - |
| 1777864846 | 17.22° C | 94% | 1012.7 hPa | 0 mm | - | - | - |
| 1777863031 | 17.78° C | 94% | 1012.8 hPa | 0 mm | - | - | - |
| 1777860671 | 17.78° C | 95% | 1012.9 hPa | 0 mm | - | - | - |
| 1777858249 | 17.78° C | 93% | 1013.1 hPa | 0 mm | - | - | - |
| 1777857644 | 17.78° C | 93% | 1013.2 hPa | 0 mm | - | - | - |
| 1777856434 | 17.78° C | 92% | 1013.4 hPa | 0 mm | - | - | - |
| 1777851672 | 18.33° C | 90% | 1013.7 hPa | 0 mm | - | - | - |
| 1777846872 | 18.89° C | 86% | 1014 hPa | 0 mm | - | - | - |
| 1777846267 | 18.89° C | 86% | 1014.1 hPa | 0 mm | - | - | - |
| 1777841422 | 18.89° C | 84% | 1014.1 hPa | 0 mm | - | - | - |
| 1777833069 | 19.44° C | 77% | 1011.9 hPa | 0 mm | - | - | - |
| 1777830647 | 21.11° C | 75% | 1011.6 hPa | 0 mm | - | - | - |
| 1777830042 | 21.67° C | 74% | 1011.4 hPa | 0 mm | - | - | - |
| 1777824017 | 25.56° C | 58% | 1010.8 hPa | 0 mm | - | - | - |
| 1777819268 | 26.11° C | 51% | 1011.4 hPa | 0 mm | - | - | - |
| 1777818677 | 26.67° C | 50% | 1011.5 hPa | 0 mm | - | - | - |
| 1777815067 | 26.11° C | 55% | 1012.6 hPa | 0 mm | - | - | - |
| 1777813851 | 25° C | 56% | 1013 hPa | 0 mm | - | - | - |
| 1777807218 | 23.89° C | 61% | 1014.8 hPa | 0 mm | - | - | - |
| 1777806667 | 22.78° C | 64% | 1015 hPa | 0 mm | - | - | - |
| 1777806056 | 22.78° C | 65% | 1015.1 hPa | 0 mm | - | - | - |
| 1777804232 | 21.67° C | 67% | 1015.2 hPa | 0 mm | - | - | - |
| 1777801876 | 20° C | 74% | 1015.9 hPa | 0 mm | - | - | - |
* Rain latest hour (hover to see other rain measurements)
** Current wind speed in m/s (hover to see current wind gust speed)